Time;durP1;ratioP1;P1;durP2;ratioP2;P2;SDS_P1;SDS_P2;PMS_P1;PMS_P2;Temp;Humidity;BMP_temperature;BMP_pressure;BME280_temperature;BME280_humidity;BME280_pressure;Samples;Min_cycle;Max_cycle;Signal;HPM_P1;HPM_P2
2023/07/13 00:01:26;;;;;;;;;;;;;;;27.38;45.13;99718.50;3169019;28;20014;-67
2023/07/13 00:02:58;;;;;;;;;;;;;;;27.38;45.39;99721.16;3172827;28;19923;-66
2023/07/13 00:04:28;;;;;;;;;;;;;;;27.38;45.14;99723.84;3177786;28;19929;-66
2023/07/13 00:06:00;;;;;;;;;;;;;;;27.38;45.00;99717.66;3177604;28;19923;-66
2023/07/13 00:07:31;;;;;;;;;;;;;;;27.36;45.14;99717.88;3177548;28;20303;-67
2023/07/13 00:09:03;;;;;;;;;;;;;;;27.36;45.47;99715.19;3177467;28;19928;-67
2023/07/13 00:10:33;;;;;;;;;;;;;;;27.34;45.44;99711.84;3178413;27;19940;-66
2023/07/13 00:12:06;;;;;;;;;;;;;;;27.33;45.60;99712.03;3179726;27;19928;-67
2023/07/13 00:13:39;;;;;;;;;;;;;;;27.31;45.48;99712.22;3178247;27;19931;-66
2023/07/13 00:15:16;;;;;;;;;;;;;;;27.28;45.75;99707.22;3179893;27;20291;-67
2023/07/13 00:16:46;;;;;;;;;;;;;;;27.27;45.55;99713.56;3180124;27;19923;-67
2023/07/13 00:18:18;;;;;;;;;;;;;;;27.25;45.43;99704.91;3180453;27;19923;-66
2023/07/13 00:19:49;;;;;;;;;;;;;;;27.23;45.91;99706.94;3178883;27;19940;-67
2023/07/13 00:21:20;;;;;;;;;;;;;;;27.23;45.98;99710.44;3179383;27;19927;-68
2023/07/13 00:22:53;;;;;;;;;;;;;;;27.23;45.53;99710.44;3179998;27;20323;-67
2023/07/13 00:24:24;;;;;;;;;;;;;;;27.23;45.51;99707.75;3179688;27;19923;-67
2023/07/13 00:25:56;;;;;;;;;;;;;;;27.22;45.58;99707.94;3179520;27;19930;-66
2023/07/13 00:27:29;;;;;;;;;;;;;;;27.20;45.58;99707.28;3180009;27;20017;-67
2023/07/13 00:29:01;;;;;;;;;;;;;;;27.20;45.96;99704.63;3174371;27;20030;-66
2023/07/13 00:30:33;;;;;;;;;;;;;;;27.22;45.58;99710.63;3175226;27;20320;-65
2023/07/13 00:32:05;;;;;;;;;;;;;;;27.21;45.61;99704.44;3177115;27;20435;-65
2023/07/13 00:33:36;;;;;;;;;;;;;;;27.21;45.75;99703.59;3179862;27;20046;-65
2023/07/13 00:35:08;;;;;;;;;;;;;;;27.20;45.68;99701.94;3179764;27;20312;-66
2023/07/13 00:36:39;;;;;;;;;;;;;;;27.18;45.71;99704.81;3179703;27;19977;-65
2023/07/13 00:38:11;;;;;;;;;;;;;;;27.16;46.09;99698.81;3175582;27;19930;-65
2023/07/13 00:39:41;;;;;;;;;;;;;;;27.16;45.72;99695.31;3170500;27;19923;-65
2023/07/13 00:41:14;;;;;;;;;;;;;;;27.15;46.14;99693.63;3179397;27;20365;-65
2023/07/13 00:42:44;;;;;;;;;;;;;;;27.14;46.05;99690.09;3179652;27;19923;-65
2023/07/13 00:44:16;;;;;;;;;;;;;;;27.13;46.11;99687.59;3174153;27;20064;-65
2023/07/13 00:46:05;;;;;;;;;;;;;;;27.13;45.81;99685.75;3180004;27;20009;-65
2023/07/13 00:47:38;;;;;;;;;;;;;;;27.12;46.14;99691.28;3179337;27;20005;-64
2023/07/13 00:49:11;;;;;;;;;;;;;;;27.11;46.09;99695.78;3179431;27;19980;-64
2023/07/13 00:50:44;;;;;;;;;;;;;;;27.09;46.19;99688.97;3179681;27;19927;-64
2023/07/13 00:52:15;;;;;;;;;;;;;;;27.08;46.06;99692.66;3179653;27;20357;-64
2023/07/13 00:53:46;;;;;;;;;;;;;;;27.08;46.22;99695.31;3179974;27;20018;-64
2023/07/13 00:55:17;;;;;;;;;;;;;;;27.03;46.06;99690.50;3179539;27;19923;-64
2023/07/13 00:56:50;;;;;;;;;;;;;;;27.10;45.93;99698.66;3179306;27;19966;-64
2023/07/13 00:58:22;;;;;;;;;;;;;;;27.08;46.01;99698.00;3179661;27;19996;-64
2023/07/13 00:59:54;;;;;;;;;;;;;;;27.07;45.87;99693.66;3179058;27;19923;-64
2023/07/13 01:01:26;;;;;;;;;;;;;;;27.07;45.96;99693.66;3174189;27;19972;-64
2023/07/13 01:02:58;;;;;;;;;;;;;;;27.05;45.95;99693.00;3175105;27;19923;-64
2023/07/13 01:04:29;;;;;;;;;;;;;;;26.98;46.25;99688.38;3179604;27;20015;-64
2023/07/13 01:06:00;;;;;;;;;;;;;;;26.93;46.29;99687.25;3179294;27;20017;-64
2023/07/13 01:07:32;;;;;;;;;;;;;;;26.88;46.40;99689.59;3179395;27;20055;-64
2023/07/13 01:09:03;;;;;;;;;;;;;;;26.85;46.62;99679.28;3179247;27;20729;-64
2023/07/13 01:10:38;;;;;;;;;;;;;;;26.85;46.29;99677.44;3179488;27;19939;-64
2023/07/13 01:12:10;;;;;;;;;;;;;;;26.82;46.24;99682.31;3179124;27;19924;-64
2023/07/13 01:13:41;;;;;;;;;;;;;;;26.79;46.83;99678.16;3179393;27;19972;-64
2023/07/13 01:15:27;;;;;;;;;;;;;;;26.75;46.75;99666.16;3170557;27;19968;-65
2023/07/13 01:17:00;;;;;;;;;;;;;;;26.75;46.75;99671.50;3170852;27;19976;-66
2023/07/13 01:18:32;;;;;;;;;;;;;;;26.75;46.51;99677.66;3173832;27;19923;-66
2023/07/13 01:20:04;;;;;;;;;;;;;;;26.74;46.55;99675.19;3179268;27;19934;-65
2023/07/13 01:21:42;;;;;;;;;;;;;;;26.73;46.71;99682.34;3179249;27;20000;-65
2023/07/13 01:23:14;;;;;;;;;;;;;;;26.71;46.81;99676.38;3178817;27;19946;-65
2023/07/13 01:24:47;;;;;;;;;;;;;;;26.67;46.88;99679.56;3178970;27;19923;-65
2023/07/13 01:26:18;;;;;;;;;;;;;;;26.65;46.92;99670.88;3179023;27;19970;-65
2023/07/13 01:27:49;;;;;;;;;;;;;;;26.65;46.83;99678.91;3179333;27;20568;-65
2023/07/13 01:29:21;;;;;;;;;;;;;;;26.66;46.50;99678.75;3175036;27;19924;-66
2023/07/13 01:30:52;;;;;;;;;;;;;;;26.68;46.69;99678.53;3178652;27;19954;-66
2023/07/13 01:32:25;;;;;;;;;;;;;;;26.68;46.37;99681.22;3178431;27;20446;-66
2023/07/13 01:33:57;;;;;;;;;;;;;;;26.69;46.39;99677.56;3179079;27;20031;-66
2023/07/13 01:35:29;;;;;;;;;;;;;;;26.68;46.61;99676.72;3178903;27;19923;-66
2023/07/13 01:37:01;;;;;;;;;;;;;;;26.69;46.31;99682.91;3178774;27;19923;-66
2023/07/13 01:38:32;;;;;;;;;;;;;;;26.69;46.49;99678.38;3179046;27;19923;-66
2023/07/13 01:40:04;;;;;;;;;;;;;;;26.67;46.75;99675.03;3179188;27;19927;-66
2023/07/13 01:41:35;;;;;;;;;;;;;;;26.66;46.34;99675.25;3178946;27;19946;-66
2023/07/13 01:43:06;;;;;;;;;;;;;;;26.64;46.73;99672.72;3178986;27;19976;-66
2023/07/13 01:44:38;;;;;;;;;;;;;;;26.63;46.45;99679.09;3175470;27;19927;-68
2023/07/13 01:46:09;;;;;;;;;;;;;;;26.60;46.85;99676.78;3169680;27;19924;-66
2023/07/13 01:47:40;;;;;;;;;;;;;;;26.58;46.90;99681.44;3179000;27;19923;-67
2023/07/13 01:49:12;;;;;;;;;;;;;;;26.55;46.87;99679.13;3178839;27;19927;-67
2023/07/13 01:50:42;;;;;;;;;;;;;;;26.53;47.00;99679.31;3179012;27;19992;-66
2023/07/13 01:52:15;;;;;;;;;;;;;;;26.52;46.76;99680.31;3178898;27;19928;-67
2023/07/13 01:53:46;;;;;;;;;;;;;;;26.52;47.06;99682.97;3179191;27;19924;-67
2023/07/13 01:55:18;;;;;;;;;;;;;;;26.51;46.81;99680.50;3178773;27;19923;-66
2023/07/13 01:56:48;;;;;;;;;;;;;;;26.50;47.15;99685.00;3178803;27;19934;-66
2023/07/13 01:58:20;;;;;;;;;;;;;;;26.50;47.01;99687.69;3178688;27;19970;-66
2023/07/13 01:59:51;;;;;;;;;;;;;;;26.48;47.25;99695.00;3174415;27;19923;-66
2023/07/13 02:01:22;;;;;;;;;;;;;;;26.46;46.90;99696.16;3169722;27;19924;-66
2023/07/13 02:02:53;;;;;;;;;;;;;;;26.47;46.77;99693.34;3178331;27;20386;-66
2023/07/13 02:04:25;;;;;;;;;;;;;;;26.40;47.17;99683.53;3178736;27;19923;-67
2023/07/13 02:05:55;;;;;;;;;;;;;;;26.48;46.72;99695.00;3178754;27;19991;-66
2023/07/13 02:07:28;;;;;;;;;;;;;;;26.48;46.67;99697.66;3178813;27;19923;-66
2023/07/13 02:09:00;;;;;;;;;;;;;;;26.49;46.95;99693.16;3178937;27;19946;-65
2023/07/13 02:10:31;;;;;;;;;;;;;;;26.46;46.73;99694.31;3178532;27;19923;-65
2023/07/13 02:12:02;;;;;;;;;;;;;;;26.44;46.63;99692.84;3178473;27;19924;-65
2023/07/13 02:13:34;;;;;;;;;;;;;;;26.40;46.92;99699.53;3169912;27;19938;-65
2023/07/13 02:15:05;;;;;;;;;;;;;;;26.36;47.33;99704.41;3175989;27;19930;-65
2023/07/13 02:16:37;;;;;;;;;;;;;;;26.29;47.54;99703.41;3178497;27;20654;-65
2023/07/13 02:18:08;;;;;;;;;;;;;;;26.22;47.71;99697.13;3178313;27;20319;-65
2023/07/13 02:19:40;;;;;;;;;;;;;;;26.20;47.66;99710.63;3178828;27;19923;-65
2023/07/13 02:21:11;;;;;;;;;;;;;;;26.20;47.37;99704.44;3178501;27;20435;-65
2023/07/13 02:22:43;;;;;;;;;;;;;;;26.16;47.68;99706.63;3178541;27;20056;-64
2023/07/13 02:24:17;;;;;;;;;;;;;;;26.13;47.76;99703.50;3178325;27;20440;-64
2023/07/13 02:25:48;;;;;;;;;;;;;;;26.07;47.65;99705.84;3178650;27;20451;-63
2023/07/13 02:27:20;;;;;;;;;;;;;;;26.05;47.88;99721.16;3178469;27;20032;-66
2023/07/13 02:28:51;;;;;;;;;;;;;;;26.04;47.82;99716.84;3178394;27;19923;-66
2023/07/13 02:30:24;;;;;;;;;;;;;;;26.00;48.24;99720.03;3164172;27;19924;-64
2023/07/13 02:31:55;;;;;;;;;;;;;;;25.94;48.47;99718.03;3177253;27;20755;-65
2023/07/13 02:33:26;;;;;;;;;;;;;;;25.88;48.81;99716.88;3177927;27;19930;-64
2023/07/13 02:34:58;;;;;;;;;;;;;;;25.82;48.88;99717.56;3177290;27;20332;-64
2023/07/13 02:36:28;;;;;;;;;;;;;;;25.77;49.01;99723.38;3178375;27;20190;-65
2023/07/13 02:38:01;;;;;;;;;;;;;;;25.76;48.91;99727.03;3178064;27;20015;-65
2023/07/13 02:39:32;;;;;;;;;;;;;;;25.77;48.91;99728.72;3178294;27;19923;-64
2023/07/13 02:41:04;;;;;;;;;;;;;;;25.75;48.80;99720.03;3178185;27;20017;-65
2023/07/13 02:42:35;;;;;;;;;;;;;;;25.73;48.73;99722.03;3178599;27;19927;-64
2023/07/13 02:44:08;;;;;;;;;;;;;;;25.70;49.13;99725.03;3178217;27;19923;-64
2023/07/13 02:45:39;;;;;;;;;;;;;;;25.66;49.25;99726.41;3176564;27;19927;-65
2023/07/13 02:47:10;;;;;;;;;;;;;;;25.64;49.00;99721.25;3178010;27;19930;-65
2023/07/13 02:48:41;;;;;;;;;;;;;;;25.62;49.19;99717.91;3178313;27;19923;-65
2023/07/13 02:50:13;;;;;;;;;;;;;;;25.63;49.02;99716.91;3178155;27;19923;-65
2023/07/13 02:51:43;;;;;;;;;;;;;;;25.63;48.78;99719.56;3177978;27;19927;-65
2023/07/13 02:53:16;;;;;;;;;;;;;;;25.59;48.88;99722.75;3177958;27;19923;-65
2023/07/13 02:54:47;;;;;;;;;;;;;;;25.55;49.04;99722.22;3178185;27;19972;-65
2023/07/13 02:56:19;;;;;;;;;;;;;;;25.53;49.40;99729.59;3177803;27;19923;-65
2023/07/13 02:57:50;;;;;;;;;;;;;;;25.52;49.36;99727.91;3177818;27;19975;-65
2023/07/13 02:59:21;;;;;;;;;;;;;;;25.51;48.99;99728.06;3178123;27;19930;-65
2023/07/13 03:00:53;;;;;;;;;;;;;;;25.54;49.17;99735.75;3174434;27;19923;-65
2023/07/13 03:02:23;;;;;;;;;;;;;;;25.57;48.75;99738.06;3171015;27;19957;-65
2023/07/13 03:03:55;;;;;;;;;;;;;;;25.54;48.74;99735.75;3177931;27;20080;-65
2023/07/13 03:05:26;;;;;;;;;;;;;;;25.52;49.08;99733.22;3177924;27;19927;-65
2023/07/13 03:06:58;;;;;;;;;;;;;;;25.49;49.18;99727.41;3177838;27;19953;-65
2023/07/13 03:08:30;;;;;;;;;;;;;;;25.49;49.25;99725.56;3177796;27;19930;-65
2023/07/13 03:10:01;;;;;;;;;;;;;;;25.49;48.79;99724.75;3152925;28;20018;-65
2023/07/13 03:11:32;;;;;;;;;;;;;;;25.52;48.91;99733.22;3177700;27;19990;-65
2023/07/13 03:13:04;;;;;;;;;;;;;;;25.55;48.80;99726.72;3178018;27;19951;-65
2023/07/13 03:14:35;;;;;;;;;;;;;;;25.58;48.50;99731.72;3177536;28;19923;-65
2023/07/13 03:16:06;;;;;;;;;;;;;;;25.59;48.38;99730.75;3171179;28;20121;-65
2023/07/13 03:17:38;;;;;;;;;;;;;;;25.60;48.61;99725.22;3177472;28;20005;-66
2023/07/13 03:19:09;;;;;;;;;;;;;;;25.63;48.62;99724.91;3177765;28;19923;-65
2023/07/13 03:20:40;;;;;;;;;;;;;;;25.65;48.58;99733.56;3177856;28;20321;-66
2023/07/13 03:22:12;;;;;;;;;;;;;;;25.68;48.57;99729.75;3178029;28;19996;-66
2023/07/13 03:23:44;;;;;;;;;;;;;;;25.71;48.40;99725.91;3177708;28;19924;-66
2023/07/13 03:25:16;;;;;;;;;;;;;;;25.72;48.38;99730.22;3177736;28;20445;-65
2023/07/13 03:26:46;;;;;;;;;;;;;;;25.73;48.30;99718.53;3177872;28;19991;-66
2023/07/13 03:28:18;;;;;;;;;;;;;;;25.73;48.26;99721.22;3178011;28;19998;-66
2023/07/13 03:29:49;;;;;;;;;;;;;;;25.68;48.48;99726.25;3173888;28;19923;-67
2023/07/13 03:31:21;;;;;;;;;;;;;;;25.63;48.45;99716.91;3170870;28;20761;-67
2023/07/13 03:32:52;;;;;;;;;;;;;;;25.59;48.50;99714.75;3178133;28;19938;-67
2023/07/13 03:34:24;;;;;;;;;;;;;;;25.54;48.59;99717.91;3178013;28;19971;-67
2023/07/13 03:35:54;;;;;;;;;;;;;;;25.53;48.69;99708.25;3177824;28;19923;-67
2023/07/13 03:37:26;;;;;;;;;;;;;;;25.53;48.80;99718.09;3177425;28;19930;-67
2023/07/13 03:38:59;;;;;;;;;;;;;;;25.51;48.72;99718.25;3177739;28;19992;-67
2023/07/13 03:40:30;;;;;;;;;;;;;;;25.48;49.02;99713.25;3177545;28;19988;-67
2023/07/13 03:42:02;;;;;;;;;;;;;;;25.45;49.00;99718.09;3177580;28;20022;-67
2023/07/13 03:43:33;;;;;;;;;;;;;;;25.42;49.36;99722.75;3177516;28;19927;-67
2023/07/13 03:45:05;;;;;;;;;;;;;;;25.41;49.33;99714.94;3177436;27;19931;-67
2023/07/13 03:46:36;;;;;;;;;;;;;;;25.39;49.26;99717.75;3177691;27;20417;-67
2023/07/13 03:48:07;;;;;;;;;;;;;;;25.34;49.35;99717.41;3180079;27;20546;-67
2023/07/13 03:49:39;;;;;;;;;;;;;;;25.31;49.55;99723.06;3180195;27;19923;-67
2023/07/13 03:51:09;;;;;;;;;;;;;;;25.27;50.03;99719.09;3179903;27;19934;-67
2023/07/13 03:52:41;;;;;;;;;;;;;;;25.25;49.94;99718.41;3179772;27;19923;-67
2023/07/13 03:54:13;;;;;;;;;;;;;;;25.25;49.78;99712.25;3180179;27;19979;-67
2023/07/13 03:55:45;;;;;;;;;;;;;;;25.23;50.20;99719.56;3179853;27;20258;-67
2023/07/13 03:57:17;;;;;;;;;;;;;;;25.20;50.00;99718.06;3179738;27;19923;-66
2023/07/13 03:58:49;;;;;;;;;;;;;;;25.18;50.39;99723.56;3179954;27;19923;-66
2023/07/13 04:00:21;;;;;;;;;;;;;;;25.17;50.31;99729.91;3158417;27;19924;-66
2023/07/13 04:01:53;;;;;;;;;;;;;;;25.16;50.15;99722.06;3171003;27;19930;-67
2023/07/13 04:03:24;;;;;;;;;;;;;;;25.16;50.43;99727.41;3179685;27;19974;-66
2023/07/13 04:04:56;;;;;;;;;;;;;;;25.17;50.22;99726.38;3178154;27;19923;-66
2023/07/13 04:06:28;;;;;;;;;;;;;;;25.17;50.24;99727.25;3179237;27;19980;-65
2023/07/13 04:07:59;;;;;;;;;;;;;;;25.21;49.75;99732.25;3180119;27;20365;-65
2023/07/13 04:09:32;;;;;;;;;;;;;;;25.26;49.83;99730.75;3179925;27;19923;-65
2023/07/13 04:11:03;;;;;;;;;;;;;;;25.30;49.79;99725.91;3178824;27;19976;-65
2023/07/13 04:12:35;;;;;;;;;;;;;;;25.37;49.67;99729.56;3180073;27;19935;-64
2023/07/13 04:14:06;;;;;;;;;;;;;;;25.41;49.31;99734.41;3179904;27;20253;-66
2023/07/13 04:15:37;;;;;;;;;;;;;;;25.45;49.39;99732.25;3179954;27;19923;-65
2023/07/13 04:17:09;;;;;;;;;;;;;;;25.50;49.31;99735.25;3176535;27;20402;-65
2023/07/13 04:18:40;;;;;;;;;;;;;;;25.52;49.10;99730.56;3179422;27;19923;-70
2023/07/13 04:20:12;;;;;;;;;;;;;;;25.55;49.19;99732.06;3179880;27;19923;-66
2023/07/13 04:21:44;;;;;;;;;;;;;;;25.59;49.02;99739.56;3179656;27;19924;-68
2023/07/13 04:23:15;;;;;;;;;;;;;;;25.63;49.03;99738.22;3179880;27;20022;-69
2023/07/13 04:24:47;;;;;;;;;;;;;;;25.69;49.03;99738.56;3179851;27;19923;-64
2023/07/13 04:26:20;;;;;;;;;;;;;;;25.71;48.83;99734.72;3179593;27;19983;-67
2023/07/13 04:27:53;;;;;;;;;;;;;;;25.75;48.62;99737.88;3179628;27;19934;-66
2023/07/13 04:29:25;;;;;;;;;;;;;;;25.77;48.60;99741.22;3175019;27;20389;-67
2023/07/13 04:30:55;;;;;;;;;;;;;;;25.79;48.69;99745.41;3171207;27;19976;-67
2023/07/13 04:32:27;;;;;;;;;;;;;;;25.80;48.61;99744.38;3171135;27;20040;-66
2023/07/13 04:33:58;;;;;;;;;;;;;;;25.83;48.48;99744.09;3179537;27;19927;-69
2023/07/13 04:35:29;;;;;;;;;;;;;;;25.85;48.77;99741.22;3179443;27;19975;-64
2023/07/13 04:37:00;;;;;;;;;;;;;;;25.87;48.69;99745.41;3179740;27;19978;-69
2023/07/13 04:38:32;;;;;;;;;;;;;;;25.90;48.42;99744.22;3178925;27;19923;-67
2023/07/13 04:40:04;;;;;;;;;;;;;;;25.94;48.22;99750.91;3179611;27;19931;-65
2023/07/13 04:41:36;;;;;;;;;;;;;;;25.97;48.49;99747.91;3179442;27;20010;-66
2023/07/13 04:43:07;;;;;;;;;;;;;;;26.01;48.13;99749.22;3172320;27;19923;-66
2023/07/13 04:44:38;;;;;;;;;;;;;;;26.04;48.42;99746.19;3165162;27;19930;-66
2023/07/13 04:46:11;;;;;;;;;;;;;;;26.07;48.46;99753.03;3171990;27;20288;-66
2023/07/13 04:47:42;;;;;;;;;;;;;;;26.09;48.33;99746.53;3175758;27;19923;-66
2023/07/13 04:49:13;;;;;;;;;;;;;;;26.13;48.37;99748.84;3178375;27;19949;-66
2023/07/13 04:50:45;;;;;;;;;;;;;;;26.16;48.01;99756.53;3178973;27;20527;-66
2023/07/13 04:52:15;;;;;;;;;;;;;;;26.18;47.91;99754.53;3178650;27;20461;-66
2023/07/13 04:53:47;;;;;;;;;;;;;;;26.22;47.98;99761.19;3179580;27;19976;-68
2023/07/13 04:55:19;;;;;;;;;;;;;;;26.26;48.19;99751.81;3173361;27;19950;-67
2023/07/13 04:56:51;;;;;;;;;;;;;;;26.31;48.04;99758.31;3165629;28;19930;-67
2023/07/13 04:58:22;;;;;;;;;;;;;;;26.36;47.66;99755.13;3176799;27;19924;-67
2023/07/13 04:59:54;;;;;;;;;;;;;;;26.39;47.97;99744.09;3178647;27;20406;-65
2023/07/13 05:01:29;;;;;;;;;;;;;;;26.42;47.79;99745.59;3174644;27;19934;-66
2023/07/13 05:03:01;;;;;;;;;;;;;;;26.46;47.83;99746.91;3153563;28;19924;-66
2023/07/13 05:04:31;;;;;;;;;;;;;;;26.51;47.43;99752.59;3178374;27;20443;-66
2023/07/13 05:06:04;;;;;;;;;;;;;;;26.54;47.56;99750.41;3179499;27;19923;-66
2023/07/13 05:07:35;;;;;;;;;;;;;;;26.58;47.59;99753.56;3178857;27;20400;-66
2023/07/13 05:09:09;;;;;;;;;;;;;;;26.64;47.08;99752.03;3179504;27;19980;-66
2023/07/13 05:10:41;;;;;;;;;;;;;;;26.68;47.44;99751.53;3179512;27;20018;-66
2023/07/13 05:12:12;;;;;;;;;;;;;;;26.73;47.24;99754.47;3178952;27;19958;-67
2023/07/13 05:13:43;;;;;;;;;;;;;;;26.76;47.12;99755.97;3178427;27;20256;-66
2023/07/13 05:15:16;;;;;;;;;;;;;;;26.77;46.92;99761.16;3178879;27;19923;-67
2023/07/13 05:16:46;;;;;;;;;;;;;;;26.77;47.12;99765.66;3170880;27;20171;-68
2023/07/13 05:18:18;;;;;;;;;;;;;;;26.71;47.33;99761.84;3176281;27;20055;-68
2023/07/13 05:19:49;;;;;;;;;;;;;;;26.65;47.87;99757.22;3178924;27;20365;-68
2023/07/13 05:21:20;;;;;;;;;;;;;;;26.62;47.93;99756.69;3179203;27;19958;-67
2023/07/13 05:22:51;;;;;;;;;;;;;;;26.57;47.87;99756.41;3179183;27;20482;-66
2023/07/13 05:24:23;;;;;;;;;;;;;;;26.55;48.12;99762.75;3178734;27;19924;-67
2023/07/13 05:25:55;;;;;;;;;;;;;;;26.54;47.89;99755.75;3178817;27;20006;-67
2023/07/13 05:27:27;;;;;;;;;;;;;;;26.57;48.16;99754.56;3178897;27;19963;-67
2023/07/13 05:28:58;;;;;;;;;;;;;;;26.61;48.10;99761.22;3178096;27;20364;-67
2023/07/13 05:30:29;;;;;;;;;;;;;;;26.65;47.80;99762.56;3169986;27;19930;-68
2023/07/13 05:32:01;;;;;;;;;;;;;;;26.70;47.83;99765.50;3171296;27;20269;-71
2023/07/13 05:33:32;;;;;;;;;;;;;;;26.74;47.50;99756.16;3178580;27;20002;-70
2023/07/13 05:35:04;;;;;;;;;;;;;;;26.78;47.64;99759.31;3179106;27;19927;-69
2023/07/13 05:36:34;;;;;;;;;;;;;;;26.78;47.81;99759.31;3171740;27;19927;-67
2023/07/13 05:38:06;;;;;;;;;;;;;;;26.81;47.48;99756.28;3167925;27;20368;-67
2023/07/13 05:39:38;;;;;;;;;;;;;;;26.86;47.40;99755.75;3178821;27;19923;-68
2023/07/13 05:41:10;;;;;;;;;;;;;;;26.91;47.26;99762.22;3178863;27;19923;-68
2023/07/13 05:42:41;;;;;;;;;;;;;;;26.98;47.19;99760.53;3178930;27;19930;-68
2023/07/13 05:44:12;;;;;;;;;;;;;;;27.03;47.05;99761.84;3178753;27;19923;-68
2023/07/13 05:45:44;;;;;;;;;;;;;;;27.07;47.15;99766.66;3178823;27;19948;-68
2023/07/13 05:47:15;;;;;;;;;;;;;;;27.07;47.38;99761.31;3177863;27;19923;-67
2023/07/13 05:48:47;;;;;;;;;;;;;;;27.10;47.09;99760.97;3178782;27;20725;-67
2023/07/13 05:50:18;;;;;;;;;;;;;;;27.13;47.48;99759.78;3178647;27;19923;-66
2023/07/13 05:51:50;;;;;;;;;;;;;;;27.14;47.47;99756.91;3178616;27;20060;-66
2023/07/13 05:53:21;;;;;;;;;;;;;;;27.18;47.07;99754.75;3173541;27;20336;-67
2023/07/13 05:54:53;;;;;;;;;;;;;;;27.24;46.94;99754.03;3172971;27;19987;-66
2023/07/13 05:56:26;;;;;;;;;;;;;;;27.30;47.11;99758.69;3178822;27;20074;-66
2023/07/13 05:57:58;;;;;;;;;;;;;;;27.37;46.74;99761.47;3177477;27;20414;-68
2023/07/13 05:59:29;;;;;;;;;;;;;;;27.39;46.95;99762.97;3178540;27;19923;-68
2023/07/13 06:01:01;;;;;;;;;;;;;;;27.43;47.05;99756.22;3176459;27;19927;-67
2023/07/13 06:02:33;;;;;;;;;;;;;;;27.49;46.90;99756.53;3169274;27;19923;-66
2023/07/13 06:04:05;;;;;;;;;;;;;;;27.55;46.99;99758.50;3178281;27;19935;-67
2023/07/13 06:05:36;;;;;;;;;;;;;;;27.62;46.75;99754.91;3178341;27;19930;-68
2023/07/13 06:07:08;;;;;;;;;;;;;;;27.64;46.76;99758.22;3177337;27;19981;-67
2023/07/13 06:08:39;;;;;;;;;;;;;;;27.66;46.57;99761.56;3178444;27;20037;-67
2023/07/13 06:10:11;;;;;;;;;;;;;;;27.70;46.50;99761.19;3178702;27;20012;-67
2023/07/13 06:11:44;;;;;;;;;;;;;;;27.75;46.44;99764.16;3178293;27;19930;-67
2023/07/13 06:13:15;;;;;;;;;;;;;;;27.80;46.29;99765.28;3178639;27;20404;-67
2023/07/13 06:14:47;;;;;;;;;;;;;;;27.87;46.55;99768.94;3178268;27;20084;-67
2023/07/13 06:16:17;;;;;;;;;;;;;;;27.99;46.40;99765.81;3174002;27;20010;-67
2023/07/13 06:17:49;;;;;;;;;;;;;;;28.10;45.95;99774.22;3169829;27;19924;-67
2023/07/13 06:19:20;;;;;;;;;;;;;;;28.19;45.81;99766.06;3174158;27;19927;-66
2023/07/13 06:20:52;;;;;;;;;;;;;;;28.20;45.85;99752.53;3178328;27;20391;-65
2023/07/13 06:22:24;;;;;;;;;;;;;;;28.34;45.84;99761.56;3178264;27;19923;-65
2023/07/13 06:23:55;;;;;;;;;;;;;;;28.42;45.32;99752.63;3178014;27;19980;-64
2023/07/13 06:25:27;;;;;;;;;;;;;;;28.49;45.46;99756.25;3178512;27;20063;-64
2023/07/13 06:27:00;;;;;;;;;;;;;;;28.55;45.22;99752.81;3178049;27;19923;-65
2023/07/13 06:28:31;;;;;;;;;;;;;;;28.62;45.26;99761.75;3178088;27;20020;-65
2023/07/13 06:30:03;;;;;;;;;;;;;;;28.69;45.08;99761.81;3171676;27;19952;-64
2023/07/13 06:31:34;;;;;;;;;;;;;;;28.74;44.99;99765.59;3174086;27;19985;-64
2023/07/13 06:33:05;;;;;;;;;;;;;;;28.79;44.95;99749.81;3178412;27;20026;-66
2023/07/13 06:34:36;;;;;;;;;;;;;;;28.84;44.41;99759.97;3178011;27;19924;-64
2023/07/13 06:36:09;;;;;;;;;;;;;;;28.88;44.62;99752.38;3177826;27;20309;-67
2023/07/13 06:37:39;;;;;;;;;;;;;;;28.93;44.46;99752.63;3178215;27;19934;-64
2023/07/13 06:39:11;;;;;;;;;;;;;;;28.93;44.30;99753.47;3177985;27;19975;-65
2023/07/13 06:40:42;;;;;;;;;;;;;;;28.92;44.08;99749.09;3178073;27;20665;-64
2023/07/13 06:42:16;;;;;;;;;;;;;;;28.96;44.18;99746.91;3178195;27;19934;-63
2023/07/13 06:43:48;;;;;;;;;;;;;;;29.02;43.84;99743.50;3177774;27;19971;-64
2023/07/13 06:45:19;;;;;;;;;;;;;;;29.10;43.66;99743.34;3178173;27;19970;-64
2023/07/13 06:46:51;;;;;;;;;;;;;;;29.16;43.56;99736.38;3169204;27;19943;-64
2023/07/13 06:48:21;;;;;;;;;;;;;;;29.21;43.43;99736.66;3177177;27;19962;-65
2023/07/13 06:49:53;;;;;;;;;;;;;;;29.30;43.56;99740.03;3178272;27;19923;-65
2023/07/13 06:51:25;;;;;;;;;;;;;;;29.37;43.18;99744.47;3177807;27;19964;-65
2023/07/13 06:52:56;;;;;;;;;;;;;;;29.47;43.11;99744.13;3178247;27;20262;-66
2023/07/13 06:54:28;;;;;;;;;;;;;;;29.51;43.30;99729.28;3169607;27;20401;-66
2023/07/13 06:55:59;;;;;;;;;;;;;;;29.68;43.11;99741.44;3165392;28;20449;-66
2023/07/13 06:57:32;;;;;;;;;;;;;;;29.77;42.68;99743.97;3176034;27;19930;-67
2023/07/13 06:59:03;;;;;;;;;;;;;;;29.84;42.50;99739.47;3178242;27;19924;-66
2023/07/13 07:00:34;;;;;;;;;;;;;;;29.94;42.73;99745.34;3177285;27;19929;-67
2023/07/13 07:02:06;;;;;;;;;;;;;;;30.01;42.29;99740.81;3175305;27;19934;-68
2023/07/13 07:03:38;;;;;;;;;;;;;;;30.09;42.28;99742.53;3177567;27;20022;-69
2023/07/13 07:05:08;;;;;;;;;;;;;;;30.15;42.10;99739.88;3178155;27;19938;-68
2023/07/13 07:06:40;;;;;;;;;;;;;;;30.19;42.14;99737.63;3177532;27;19923;-66
2023/07/13 07:08:11;;;;;;;;;;;;;;;30.24;41.80;99743.28;3177715;27;19923;-66
2023/07/13 07:09:43;;;;;;;;;;;;;;;30.30;41.89;99741.66;3177943;27;20001;-65
2023/07/13 07:11:14;;;;;;;;;;;;;;;30.37;41.77;99745.19;3175064;27;19927;-65
2023/07/13 07:12:48;;;;;;;;;;;;;;;30.44;41.63;99745.22;3169635;27;19977;-66
2023/07/13 07:14:19;;;;;;;;;;;;;;;30.51;41.51;99743.41;3177826;27;19988;-67
2023/07/13 07:15:51;;;;;;;;;;;;;;;30.51;41.57;99728.09;3177593;27;20004;-66
2023/07/13 07:17:21;;;;;;;;;;;;;;;30.66;41.23;99743.25;3157082;28;20400;-66
2023/07/13 07:18:53;;;;;;;;;;;;;;;30.71;41.06;99730.03;3177578;28;19973;-66
2023/07/13 07:20:24;;;;;;;;;;;;;;;30.77;41.09;99730.06;3178960;27;19983;-68
2023/07/13 07:21:56;;;;;;;;;;;;;;;30.82;40.76;99733.00;3182144;27;20386;-67
2023/07/13 07:23:26;;;;;;;;;;;;;;;30.89;40.80;99733.03;3181939;27;20145;-67
2023/07/13 07:24:58;;;;;;;;;;;;;;;30.96;40.80;99739.22;3182136;27;19977;-67
2023/07/13 07:26:30;;;;;;;;;;;;;;;31.04;40.49;99738.22;3181972;27;20462;-66
2023/07/13 07:28:03;;;;;;;;;;;;;;;31.12;40.35;99737.19;3182253;27;20022;-68
2023/07/13 07:29:34;;;;;;;;;;;;;;;31.19;40.27;99728.09;3175922;27;19928;-69
2023/07/13 07:31:06;;;;;;;;;;;;;;;31.28;40.21;99734.09;3175552;27;20423;-69
2023/07/13 07:32:37;;;;;;;;;;;;;;;31.36;39.87;99733.94;3176464;27;19942;-68
2023/07/13 07:34:08;;;;;;;;;;;;;;;31.46;39.86;99736.22;3182310;27;19946;-70
2023/07/13 07:35:39;;;;;;;;;;;;;;;31.55;39.40;99728.78;3181982;27;19923;-66
2023/07/13 07:37:12;;;;;;;;;;;;;;;31.59;39.49;99733.53;3181887;27;19923;-70
2023/07/13 07:38:44;;;;;;;;;;;;;;;31.64;39.69;99731.03;3181694;27;19935;-70
2023/07/13 07:40:16;;;;;;;;;;;;;;;31.76;39.18;99730.41;3182212;27;20144;-69
2023/07/13 07:41:46;;;;;;;;;;;;;;;31.89;39.19;99725.84;3181968;27;19931;-68
2023/07/13 07:43:20;;;;;;;;;;;;;;;32.01;38.99;99726.06;3181846;27;19924;-70
2023/07/13 07:44:50;;;;;;;;;;;;;;;32.11;38.99;99722.91;3182342;27;20014;-69
2023/07/13 07:46:22;;;;;;;;;;;;;;;32.19;39.01;99728.06;3177148;27;20399;-68
2023/07/13 07:47:58;;;;;;;;;;;;;;;32.32;38.63;99728.03;3176797;27;19923;-68
2023/07/13 07:49:30;;;;;;;;;;;;;;;32.47;38.46;99725.09;3181626;27;20389;-69
2023/07/13 07:51:01;;;;;;;;;;;;;;;32.59;38.24;99720.69;3170650;27;19924;-67
2023/07/13 07:52:32;;;;;;;;;;;;;;;32.67;38.10;99725.00;3170267;27;19923;-69
2023/07/13 07:54:03;;;;;;;;;;;;;;;32.70;37.85;99732.66;3181893;27;20344;-69
2023/07/13 07:55:35;;;;;;;;;;;;;;;32.73;37.71;99724.13;3181899;27;19927;-70
2023/07/13 07:57:08;;;;;;;;;;;;;;;32.80;37.60;99726.78;3173626;27;19934;-69
2023/07/13 07:58:40;;;;;;;;;;;;;;;32.89;37.25;99725.50;3180873;27;19934;-69